createdAt,value
2022-12-03T00:00:12.864Z,18.10
2022-12-03T00:02:41.609Z,18.67
2022-12-03T00:05:10.104Z,19.80
2022-12-03T00:07:37.785Z,24.02
2022-12-03T00:10:06.313Z,24.05
2022-12-03T00:12:34.019Z,12.60
2022-12-03T00:15:01.568Z,23.00
2022-12-03T00:17:29.317Z,18.35
2022-12-03T00:19:57.349Z,18.95
2022-12-03T00:22:25.103Z,16.33
2022-12-03T00:24:53.289Z,16.02
2022-12-03T00:27:21.355Z,17.15
2022-12-03T00:29:49.099Z,15.77
2022-12-03T00:32:16.837Z,17.48
2022-12-03T00:34:44.375Z,17.48
2022-12-03T00:37:11.830Z,16.42
2022-12-03T00:39:39.381Z,17.15
2022-12-03T00:42:06.863Z,16.80
2022-12-03T00:44:34.577Z,13.15
2022-12-03T00:47:02.424Z,14.25
2022-12-03T00:49:29.956Z,15.23
2022-12-03T00:51:57.438Z,14.63
2022-12-03T00:54:31.436Z,14.98
2022-12-03T00:56:59.547Z,14.20
2022-12-03T00:59:27.084Z,18.60
2022-12-03T01:01:54.606Z,18.77
2022-12-03T01:04:22.355Z,16.92
2022-12-03T01:06:49.847Z,14.48
2022-12-03T01:09:17.314Z,16.30
2022-12-03T01:11:44.805Z,17.15
2022-12-03T01:14:16.085Z,16.90
2022-12-03T01:16:43.787Z,16.67
2022-12-03T01:19:18.250Z,15.02
2022-12-03T01:21:49.682Z,16.45
2022-12-03T01:24:18.728Z,17.55
2022-12-03T01:29:14.444Z,16.48
2022-12-03T01:32:00.863Z,18.60
2022-12-03T01:34:28.809Z,15.52
2022-12-03T01:36:56.688Z,12.10
2022-12-03T01:39:24.584Z,16.98
2022-12-03T01:41:53.135Z,14.25
2022-12-03T01:44:27.590Z,16.10
2022-12-03T01:46:57.727Z,15.70
2022-12-03T01:49:29.272Z,18.40
2022-12-03T01:51:58.010Z,15.80
2022-12-03T01:54:31.075Z,17.55
2022-12-03T01:56:58.987Z,15.45
2022-12-03T01:59:37.830Z,19.02
2022-12-03T02:02:21.073Z,18.75
2022-12-03T02:04:49.129Z,17.23
2022-12-03T02:07:27.631Z,13.07
2022-12-03T02:09:57.840Z,17.45
2022-12-03T02:12:30.554Z,15.65
2022-12-03T02:14:59.324Z,15.90
2022-12-03T02:17:28.246Z,17.30
2022-12-03T02:19:57.161Z,16.88
2022-12-03T02:22:38.107Z,17.77
2022-12-03T02:25:08.961Z,16.17
2022-12-03T02:27:36.782Z,17.20
2022-12-03T02:30:06.702Z,13.52
2022-12-03T02:32:34.511Z,14.10
2022-12-03T02:35:02.009Z,20.85
2022-12-03T02:37:34.423Z,14.60
2022-12-03T02:40:10.162Z,15.65
2022-12-03T02:42:37.897Z,16.88
2022-12-03T02:45:08.720Z,12.07
2022-12-03T02:47:42.740Z,15.55
2022-12-03T02:50:12.590Z,15.05
2022-12-03T02:52:42.305Z,15.77
2022-12-03T02:55:11.198Z,15.40
2022-12-03T03:00:08.471Z,16.23
2022-12-03T03:02:37.407Z,15.65
2022-12-03T03:07:34.507Z,16.65
2022-12-03T03:10:04.129Z,16.08
2022-12-03T03:12:37.620Z,18.42
2022-12-03T03:15:08.207Z,18.73
2022-12-03T03:17:36.012Z,16.27
2022-12-03T03:20:06.407Z,17.35
2022-12-03T03:22:36.356Z,15.90
2022-12-03T03:25:04.997Z,15.60
2022-12-03T03:30:00.715Z,17.15
2022-12-03T03:32:29.051Z,17.52
2022-12-03T03:34:57.263Z,13.73
2022-12-03T03:37:25.759Z,17.92
2022-12-03T03:39:54.143Z,16.48
2022-12-03T03:42:22.041Z,17.15
2022-12-03T03:44:49.949Z,11.03
2022-12-03T03:47:18.171Z,13.75
2022-12-03T03:49:47.988Z,18.95
2022-12-03T03:52:15.456Z,15.48
2022-12-03T03:54:43.019Z,17.25
2022-12-03T03:57:10.486Z,16.02
2022-12-03T03:59:38.261Z,17.42
2022-12-03T04:02:05.682Z,16.30
2022-12-03T04:04:36.770Z,16.27
2022-12-03T04:07:04.262Z,16.00
2022-12-03T04:09:31.688Z,16.92
2022-12-03T04:12:17.606Z,15.63
2022-12-03T04:14:45.155Z,19.55
2022-12-03T04:17:12.628Z,15.75
2022-12-03T04:19:40.147Z,15.80
2022-12-03T04:22:26.161Z,16.15
2022-12-03T04:25:13.612Z,16.65
2022-12-03T04:28:13.789Z,15.70
2022-12-03T04:30:41.483Z,18.90
2022-12-03T04:33:27.761Z,14.45
2022-12-03T04:35:55.505Z,19.05
2022-12-03T04:38:23.077Z,22.65
2022-12-03T04:41:03.980Z,16.65
2022-12-03T04:43:55.552Z,17.10
2022-12-03T04:46:22.999Z,17.30
2022-12-03T04:48:50.521Z,14.40
2022-12-03T04:51:17.909Z,18.17
2022-12-03T04:53:46.278Z,17.23
2022-12-03T04:56:14.161Z,15.05
2022-12-03T04:58:41.750Z,18.63
2022-12-03T05:01:09.543Z,17.58
2022-12-03T05:03:37.235Z,18.80
2022-12-03T05:06:04.769Z,17.77
2022-12-03T05:08:32.372Z,16.38
2022-12-03T05:10:59.906Z,17.15
2022-12-03T05:13:27.379Z,15.75
2022-12-03T05:15:54.781Z,15.70
2022-12-03T05:18:22.521Z,15.68
2022-12-03T05:20:53.575Z,16.90
2022-12-03T05:23:21.976Z,15.65
2022-12-03T05:25:49.517Z,18.90
2022-12-03T05:28:17.131Z,21.20
2022-12-03T05:30:44.618Z,17.70
2022-12-03T05:33:12.165Z,17.33
2022-12-03T05:35:39.639Z,17.60
2022-12-03T05:38:07.591Z,14.27
2022-12-03T05:40:35.777Z,18.63
2022-12-03T05:43:03.979Z,18.45
2022-12-03T05:45:35.479Z,17.97
2022-12-03T05:48:04.621Z,19.35
2022-12-03T05:50:34.313Z,16.35
2022-12-03T05:53:01.966Z,20.27
2022-12-03T05:55:30.132Z,21.20
2022-12-03T05:57:57.786Z,13.07
2022-12-03T06:00:28.625Z,16.58
2022-12-03T06:02:56.659Z,18.77
2022-12-03T06:05:25.333Z,12.80
2022-12-03T06:07:53.537Z,16.35
2022-12-03T06:10:26.884Z,16.60
2022-12-03T06:12:54.426Z,16.83
2022-12-03T06:15:22.669Z,18.40
2022-12-03T06:17:50.289Z,18.87
2022-12-03T06:20:20.216Z,17.85
2022-12-03T06:22:48.211Z,15.20
2022-12-03T06:25:16.949Z,17.95
2022-12-03T06:27:44.898Z,18.63
2022-12-03T06:30:13.943Z,19.88
2022-12-03T06:32:41.777Z,20.58
2022-12-03T06:35:09.541Z,19.23
2022-12-03T06:37:37.058Z,21.50
2022-12-03T06:40:04.896Z,20.60
2022-12-03T06:42:32.402Z,16.67
2022-12-03T06:44:59.801Z,17.85
2022-12-03T06:47:27.296Z,16.60
2022-12-03T06:49:54.829Z,18.58
2022-12-03T06:52:22.453Z,19.67
2022-12-03T06:54:49.879Z,20.63
2022-12-03T06:57:17.367Z,13.52
2022-12-03T06:59:44.792Z,19.90
2022-12-03T07:02:12.871Z,18.13
2022-12-03T07:04:52.526Z,21.33
2022-12-03T07:07:20.335Z,18.45
2022-12-03T07:09:48.043Z,18.88
2022-12-03T07:12:15.590Z,18.83
2022-12-03T07:14:43.403Z,23.95
2022-12-03T07:17:10.896Z,19.70
2022-12-03T07:19:38.466Z,18.95
2022-12-03T07:22:06.306Z,28.67
2022-12-03T07:24:34.064Z,21.25
2022-12-03T07:27:01.511Z,19.65
2022-12-03T07:29:29.028Z,20.83
2022-12-03T07:31:56.560Z,20.05
2022-12-03T07:34:24.340Z,18.70
2022-12-03T07:36:52.346Z,20.83
2022-12-03T07:39:20.052Z,17.02
2022-12-03T07:41:47.787Z,22.63
2022-12-03T07:44:15.285Z,25.52
2022-12-03T07:46:43.284Z,22.65
2022-12-03T07:49:12.381Z,15.52
2022-12-03T07:51:40.476Z,19.48
2022-12-03T07:54:07.931Z,18.50
2022-12-03T07:56:36.038Z,18.92
2022-12-03T07:59:03.844Z,14.73
2022-12-03T08:01:31.637Z,20.88
2022-12-03T08:03:59.804Z,21.13
2022-12-03T08:06:27.399Z,21.13
2022-12-03T08:08:54.896Z,18.08
2022-12-03T08:11:22.639Z,21.35
2022-12-03T08:13:50.345Z,20.45
2022-12-03T08:16:21.397Z,19.05
2022-12-03T08:18:50.493Z,19.15
2022-12-03T08:21:20.445Z,18.08
2022-12-03T08:23:48.477Z,16.92
2022-12-03T08:26:28.163Z,19.23
2022-12-03T08:28:55.664Z,21.05
2022-12-03T08:31:32.486Z,19.73
2022-12-03T08:34:26.496Z,18.35
2022-12-03T08:37:01.424Z,19.73
2022-12-03T08:39:31.025Z,19.75
2022-12-03T08:42:21.047Z,18.55
2022-12-03T08:44:48.577Z,21.90
2022-12-03T08:47:21.243Z,18.13
2022-12-03T08:49:59.936Z,19.80
2022-12-03T08:52:32.255Z,17.95
2022-12-03T08:55:02.772Z,17.33
2022-12-03T08:57:32.943Z,21.98
2022-12-03T09:00:15.452Z,20.80
2022-12-03T09:02:49.632Z,19.85
2022-12-03T09:05:22.260Z,24.58
2022-12-03T09:07:50.206Z,32.72
2022-12-03T09:10:17.776Z,18.58
2022-12-03T09:12:45.656Z,20.48
2022-12-03T09:15:13.490Z,20.38
2022-12-03T09:17:40.957Z,22.90
2022-12-03T09:20:08.832Z,21.77
2022-12-03T09:22:36.614Z,21.30
2022-12-03T09:25:04.532Z,19.88
2022-12-03T09:27:32.288Z,15.67
2022-12-03T09:29:59.996Z,20.65
2022-12-03T09:32:27.620Z,24.13
2022-12-03T09:34:55.438Z,18.33
2022-12-03T09:37:23.216Z,15.87
2022-12-03T09:39:50.657Z,20.52
2022-12-03T09:42:18.163Z,31.10
2022-12-03T09:44:46.123Z,32.58
2022-12-03T09:47:14.094Z,34.13
2022-12-03T09:49:42.362Z,25.20
2022-12-03T09:52:22.489Z,22.80
2022-12-03T09:54:50.492Z,21.40
2022-12-03T09:57:18.847Z,21.92
2022-12-03T09:59:46.759Z,19.52
2022-12-03T10:02:24.148Z,21.98
2022-12-03T10:04:53.286Z,22.05
2022-12-03T10:07:21.080Z,20.27
2022-12-03T10:09:48.591Z,20.50
2022-12-03T10:12:22.562Z,23.85
2022-12-03T10:14:50.360Z,21.15
2022-12-03T10:17:18.282Z,20.15
2022-12-03T10:19:46.401Z,28.47
2022-12-03T10:22:14.105Z,30.08
2022-12-03T10:24:41.900Z,23.80
2022-12-03T10:27:24.499Z,26.15
2022-12-03T10:30:00.276Z,24.48
2022-12-03T10:32:41.460Z,23.02
2022-12-03T10:35:34.212Z,22.58
2022-12-03T10:38:19.947Z,20.58
2022-12-03T10:40:47.659Z,21.00
2022-12-03T10:43:17.864Z,21.88
2022-12-03T10:46:06.413Z,21.98
2022-12-03T10:48:34.102Z,22.15
2022-12-03T10:51:10.234Z,22.10
2022-12-03T10:53:40.582Z,19.23
2022-12-03T10:56:15.073Z,29.35
2022-12-03T10:58:42.840Z,26.63
2022-12-03T11:01:25.789Z,23.48
2022-12-03T11:04:01.229Z,20.83
2022-12-03T11:06:31.522Z,19.13
2022-12-03T11:09:03.818Z,23.17
2022-12-03T11:11:34.614Z,18.85
2022-12-03T11:14:04.216Z,21.83
2022-12-03T11:16:40.871Z,23.60
2022-12-03T11:19:37.434Z,24.20
2022-12-03T11:22:04.976Z,20.05
2022-12-03T11:24:35.802Z,23.35
2022-12-03T11:27:03.304Z,22.23
2022-12-03T11:29:48.787Z,21.83
2022-12-03T11:32:38.167Z,20.30
2022-12-03T11:35:24.204Z,21.60
2022-12-03T11:37:52.236Z,19.30
2022-12-03T11:40:19.622Z,22.25
2022-12-03T11:42:48.324Z,22.75
2022-12-03T11:45:18.656Z,20.55
2022-12-03T11:47:58.357Z,27.80
2022-12-03T11:50:39.725Z,28.20
2022-12-03T11:53:13.211Z,26.20
2022-12-03T11:55:48.447Z,25.50
2022-12-03T11:58:30.249Z,19.58
2022-12-03T12:01:00.027Z,22.25
2022-12-03T12:03:33.877Z,21.65
2022-12-03T12:06:07.759Z,18.60
2022-12-03T12:08:41.419Z,16.92
2022-12-03T12:11:19.075Z,19.98
2022-12-03T12:13:54.718Z,17.13
2022-12-03T12:16:41.038Z,16.67
2022-12-03T12:19:33.043Z,19.33
2022-12-03T12:22:13.624Z,20.45
2022-12-03T12:24:43.195Z,19.42
2022-12-03T12:27:14.359Z,18.40
2022-12-03T12:29:43.973Z,21.50
2022-12-03T12:32:15.244Z,20.25
2022-12-03T12:35:02.777Z,21.45
2022-12-03T12:37:37.332Z,24.73
2022-12-03T12:40:15.195Z,23.17
2022-12-03T12:42:55.552Z,20.70
2022-12-03T12:45:29.308Z,18.77
2022-12-03T12:48:14.934Z,21.90
2022-12-03T12:50:45.576Z,21.30
2022-12-03T12:53:26.509Z,21.65
2022-12-03T12:56:00.042Z,20.08
2022-12-03T12:58:31.933Z,24.52
2022-12-03T13:01:04.125Z,22.83
2022-12-03T13:03:38.304Z,20.90
2022-12-03T13:06:06.327Z,21.95
2022-12-03T13:08:40.594Z,22.35
2022-12-03T13:11:34.324Z,22.02
2022-12-03T13:14:10.996Z,22.38
2022-12-03T13:16:39.034Z,21.75
2022-12-03T13:19:20.151Z,14.15
2022-12-03T13:21:47.877Z,19.95
2022-12-03T13:24:41.087Z,18.83
2022-12-03T13:27:17.651Z,24.42
2022-12-03T13:29:53.264Z,23.02
2022-12-03T13:32:23.341Z,24.70
2022-12-03T13:34:50.805Z,22.48
2022-12-03T13:37:25.406Z,23.48
2022-12-03T13:39:55.966Z,25.50
2022-12-03T13:42:46.060Z,23.55
2022-12-03T13:45:13.748Z,20.98
2022-12-03T13:47:57.532Z,22.42
2022-12-03T13:50:46.043Z,21.77
2022-12-03T13:53:24.171Z,21.02
2022-12-03T13:56:13.830Z,17.60
2022-12-03T13:58:41.289Z,23.42
2022-12-03T14:01:08.751Z,25.42
2022-12-03T14:03:36.985Z,32.35
2022-12-03T14:06:04.869Z,20.23
2022-12-03T14:08:32.706Z,21.20
2022-12-03T14:11:01.091Z,29.35
2022-12-03T14:13:28.938Z,24.88
2022-12-03T14:15:56.777Z,20.30
2022-12-03T14:18:24.327Z,23.40
2022-12-03T14:20:52.221Z,22.00
2022-12-03T14:23:20.144Z,17.23
2022-12-03T14:25:48.023Z,20.52
2022-12-03T14:28:15.701Z,21.73
2022-12-03T14:30:43.123Z,24.23
2022-12-03T14:33:10.570Z,45.10
2022-12-03T14:35:38.018Z,74.75
2022-12-03T14:38:05.972Z,37.67
2022-12-03T14:40:34.158Z,28.58
2022-12-03T14:43:01.947Z,51.03
2022-12-03T14:45:30.102Z,32.55
2022-12-03T14:47:57.652Z,20.27
2022-12-03T14:50:25.828Z,17.20
2022-12-03T14:52:54.151Z,18.42
2022-12-03T14:55:21.735Z,26.08
2022-12-03T14:57:49.265Z,26.85
2022-12-03T15:00:17.284Z,25.98
2022-12-03T15:02:44.842Z,20.97
2022-12-03T15:05:12.404Z,34.85
2022-12-03T15:07:39.970Z,20.85
2022-12-03T15:10:08.617Z,28.23
2022-12-03T15:12:36.291Z,31.00
2022-12-03T15:15:04.116Z,24.35
2022-12-03T15:17:32.416Z,21.77
2022-12-03T15:20:00.366Z,27.48
2022-12-03T15:22:27.857Z,27.17
2022-12-03T15:24:55.478Z,23.67
2022-12-03T15:27:23.515Z,23.70
2022-12-03T15:29:51.756Z,18.58
2022-12-03T15:32:19.739Z,21.50
2022-12-03T15:34:47.269Z,28.02
2022-12-03T15:37:14.947Z,26.15
2022-12-03T15:39:48.504Z,24.37
2022-12-03T15:42:16.966Z,28.55
2022-12-03T15:44:44.383Z,24.65
2022-12-03T15:47:11.841Z,31.48
2022-12-03T15:49:39.658Z,23.60
2022-12-03T15:52:07.993Z,28.13
2022-12-03T15:54:35.770Z,18.70
2022-12-03T15:57:03.210Z,24.75
2022-12-03T15:59:30.862Z,33.28
2022-12-03T16:01:58.442Z,30.05
2022-12-03T16:04:26.100Z,27.15
2022-12-03T16:06:53.648Z,32.42
2022-12-03T16:09:26.739Z,38.17
2022-12-03T16:11:55.260Z,27.77
2022-12-03T16:14:22.991Z,21.03
2022-12-03T16:16:50.501Z,23.38
2022-12-03T16:19:18.300Z,22.80
2022-12-03T16:21:45.718Z,25.30
2022-12-03T16:24:13.150Z,22.45
2022-12-03T16:26:40.577Z,23.17
2022-12-03T16:29:08.321Z,22.80
2022-12-03T16:31:35.959Z,24.42
2022-12-03T16:34:03.744Z,25.75
2022-12-03T16:36:31.462Z,28.27
2022-12-03T16:38:58.981Z,22.92
2022-12-03T16:41:26.736Z,29.42
2022-12-03T16:43:54.277Z,23.98
2022-12-03T16:46:26.119Z,23.67
2022-12-03T16:48:57.920Z,26.17
2022-12-03T16:51:27.445Z,22.15
2022-12-03T16:53:55.249Z,23.48
2022-12-03T16:56:23.002Z,28.67
2022-12-03T16:58:50.710Z,31.13
2022-12-03T17:01:18.680Z,29.48
2022-12-03T17:03:46.752Z,23.33
2022-12-03T17:06:15.256Z,22.92
2022-12-03T17:08:48.758Z,30.08
2022-12-03T17:11:17.819Z,35.47
2022-12-03T17:13:45.775Z,18.17
2022-12-03T17:16:13.536Z,20.37
2022-12-03T17:18:41.741Z,19.45
2022-12-03T17:21:09.497Z,20.65
2022-12-03T17:23:37.242Z,27.20
2022-12-03T17:26:05.150Z,21.77
2022-12-03T17:28:33.181Z,31.65
2022-12-03T17:31:01.177Z,19.07
2022-12-03T17:33:29.007Z,26.40
2022-12-03T17:35:56.869Z,23.13
2022-12-03T17:38:24.681Z,22.38
2022-12-03T17:40:52.422Z,24.77
2022-12-03T17:43:19.880Z,29.23
2022-12-03T17:45:47.512Z,29.88
2022-12-03T17:48:15.522Z,26.75
2022-12-03T17:50:43.272Z,28.92
2022-12-03T17:53:11.211Z,26.20
2022-12-03T17:55:44.645Z,25.70
2022-12-03T17:58:12.906Z,21.27
2022-12-03T18:00:42.266Z,25.15
2022-12-03T18:03:10.398Z,30.25
2022-12-03T18:05:38.126Z,20.58
2022-12-03T18:08:06.223Z,24.80
2022-12-03T18:10:33.791Z,21.20
2022-12-03T18:13:02.418Z,27.23
2022-12-03T18:15:31.123Z,35.97
2022-12-03T18:20:26.928Z,27.85
2022-12-03T18:22:54.392Z,26.10
2022-12-03T18:25:21.815Z,23.27
2022-12-03T18:27:49.694Z,26.05
2022-12-03T18:30:17.684Z,31.52
2022-12-03T18:32:45.976Z,28.97
2022-12-03T18:35:14.291Z,24.65
2022-12-03T18:37:42.226Z,18.63
2022-12-03T18:40:18.606Z,26.75
2022-12-03T18:42:46.970Z,26.90
2022-12-03T18:45:15.970Z,28.33
2022-12-03T18:47:44.638Z,27.98
2022-12-03T18:50:13.120Z,29.33
2022-12-03T18:52:41.126Z,31.38
2022-12-03T18:55:19.110Z,39.63
2022-12-03T18:57:46.846Z,31.77
2022-12-03T19:00:15.700Z,35.17
2022-12-03T19:03:02.491Z,33.20
2022-12-03T19:05:33.203Z,31.20
2022-12-03T19:08:01.454Z,40.33
2022-12-03T19:10:29.505Z,32.92
2022-12-03T19:12:57.445Z,28.67
2022-12-03T19:15:25.286Z,26.37
2022-12-03T19:17:53.501Z,38.03
2022-12-03T19:20:21.942Z,28.77
2022-12-03T19:22:49.992Z,31.45
2022-12-03T19:25:17.978Z,25.98
2022-12-03T19:27:46.231Z,23.73
2022-12-03T19:30:14.768Z,34.95
2022-12-03T19:32:43.003Z,36.90
2022-12-03T19:35:11.441Z,31.98
2022-12-03T19:37:39.867Z,30.27
2022-12-03T19:40:10.293Z,34.58
2022-12-03T19:42:38.625Z,38.58
2022-12-03T19:45:07.134Z,35.75
2022-12-03T19:47:36.168Z,35.28
2022-12-03T19:50:05.682Z,32.10
2022-12-03T19:55:04.181Z,38.03
2022-12-03T19:57:32.061Z,30.58
2022-12-03T20:00:01.241Z,25.52
2022-12-03T20:04:56.945Z,30.90
2022-12-03T20:07:24.649Z,30.25
2022-12-03T20:09:53.186Z,26.80
2022-12-03T20:12:21.315Z,29.08
2022-12-03T20:14:49.935Z,32.35
2022-12-03T20:17:19.009Z,27.02
2022-12-03T20:19:46.855Z,28.63
2022-12-03T20:22:14.743Z,26.47
2022-12-03T20:24:42.435Z,28.02
2022-12-03T20:27:09.856Z,24.85
2022-12-03T20:29:37.363Z,25.95
2022-12-03T20:32:07.092Z,26.77
2022-12-03T20:34:36.035Z,27.23
2022-12-03T20:39:31.178Z,28.20
2022-12-03T20:41:59.934Z,31.65
2022-12-03T20:44:27.675Z,27.48
2022-12-03T20:46:55.471Z,29.27
2022-12-03T20:49:23.533Z,21.58
2022-12-03T20:51:51.481Z,20.47
2022-12-03T20:54:19.220Z,24.25
2022-12-03T20:56:46.996Z,26.52
2022-12-03T20:59:16.786Z,29.65
2022-12-03T21:01:46.002Z,27.25
2022-12-03T21:04:13.907Z,27.70
2022-12-03T21:06:42.453Z,27.13
2022-12-03T21:09:11.435Z,27.17
2022-12-03T21:11:41.641Z,31.25
2022-12-03T21:14:11.234Z,28.23
2022-12-03T21:17:07.358Z,29.23
2022-12-03T21:19:34.081Z,26.42
2022-12-03T21:22:01.789Z,26.98
2022-12-03T21:24:30.056Z,37.70
2022-12-03T21:26:57.890Z,21.02
2022-12-03T21:29:25.587Z,26.60
2022-12-03T21:31:53.652Z,40.60
2022-12-03T21:34:21.468Z,23.37
2022-12-03T21:36:49.647Z,24.80
2022-12-03T21:39:18.827Z,28.67
2022-12-03T21:42:19.336Z,25.80
2022-12-03T21:44:36.103Z,28.35
2022-12-03T21:47:11.220Z,27.63
2022-12-03T21:49:41.668Z,26.60
2022-12-03T21:52:09.986Z,21.67
2022-12-03T21:54:37.675Z,21.05
2022-12-03T21:57:05.467Z,26.55
2022-12-03T21:59:33.351Z,23.83
2022-12-03T22:02:01.479Z,19.60
2022-12-03T22:04:29.024Z,27.15
2022-12-03T22:06:56.554Z,25.00
2022-12-03T22:09:26.732Z,21.98
2022-12-03T22:11:56.949Z,23.70
2022-12-03T22:14:24.735Z,25.88
2022-12-03T22:16:52.464Z,23.23
2022-12-03T22:19:24.366Z,24.50
2022-12-03T22:21:52.314Z,25.23
2022-12-03T22:24:20.193Z,22.85
2022-12-03T22:26:47.905Z,25.98
2022-12-03T22:29:15.792Z,21.70
2022-12-03T22:31:44.358Z,25.17
2022-12-03T22:34:12.275Z,24.42
2022-12-03T22:36:40.097Z,21.37
2022-12-03T22:39:07.891Z,24.90
2022-12-03T22:41:35.390Z,26.75
2022-12-03T22:44:02.856Z,21.83
2022-12-03T22:46:30.938Z,27.08
2022-12-03T22:49:04.980Z,22.50
2022-12-03T22:51:35.157Z,25.88
2022-12-03T22:54:02.734Z,22.42
2022-12-03T22:56:30.665Z,27.30
2022-12-03T22:58:58.233Z,20.10
2022-12-03T23:01:32.008Z,27.13
2022-12-03T23:04:00.659Z,23.70
2022-12-03T23:06:29.712Z,23.38
2022-12-03T23:11:26.733Z,26.70
2022-12-03T23:13:54.917Z,24.23
2022-12-03T23:16:26.244Z,20.17
2022-12-03T23:18:54.639Z,26.38
2022-12-03T23:21:29.505Z,22.88
2022-12-03T23:23:59.963Z,26.83
2022-12-03T23:26:28.227Z,25.75
2022-12-03T23:28:56.614Z,24.33
2022-12-03T23:31:27.597Z,24.10
2022-12-03T23:33:56.278Z,25.23
2022-12-03T23:36:25.523Z,25.05
2022-12-03T23:38:53.689Z,25.58
2022-12-03T23:41:22.975Z,24.90
2022-12-03T23:43:51.616Z,23.88
2022-12-03T23:46:22.532Z,22.27
2022-12-03T23:48:50.724Z,25.30
2022-12-03T23:51:21.391Z,20.13
2022-12-03T23:53:49.025Z,23.20
2022-12-03T23:56:22.279Z,18.83
2022-12-03T23:58:50.367Z,26.60
